Portada
METAR-TAF:

METAR-TAF

Aeropuertos :

Port Hawkesbury, Nueva Escocia, Canadá

latitud: 45-40N, longitud: 061-23W, altitud: 114 m

Observación

El informe se hizo hace 34 minutos, a las 15:00 UTC
Viento 13 kt del sur-sureste con ráfagas de 22 kt
Temperatura 5°C
Humedad 100%
Presión 1005 hPa
Visibilidad: 2.4 km
Cielo cubierto a una altura de 300 ft
lluvia ligera, neblina

METAR: CYPD 161500Z AUTO 16013G22KT 1 1/2SM -RA BR OVC003 05/05 A2968 RMK PRESFR SLP056

Hora: 11:34 (15:34 UTC)


TAF: falta

Observaciones y pronósticos meteorológicos de más de 4000 aeropuertos (mensajes METAR y TAF).

Los puntos amarillos y rojos representan las estaciones disponibles.

Ponga el ratón en el punto deseado para ver el nombre de la estación.

Haga clic para ver las observaciones y los pronósticos meteorológicos.

Para cambiar el mapa : haga clic en los botones verdes con una cruz de color negro para hacer un zoom, en el botón verde con un guión para alejar o en las flechas verdes para mapas adyacentes.


METAR-TAF: